createdAt,value
2018-04-13T00:00:48.442Z,977.97
2018-04-13T00:01:48.439Z,978.00
2018-04-13T00:02:48.428Z,977.99
2018-04-13T00:03:48.421Z,977.98
2018-04-13T00:04:48.418Z,977.99
2018-04-13T00:05:48.414Z,978.00
2018-04-13T00:06:48.412Z,977.99
2018-04-13T00:07:48.400Z,978.02
2018-04-13T00:08:48.394Z,978.03
2018-04-13T00:09:48.389Z,978.00
2018-04-13T00:10:48.383Z,978.01
2018-04-13T00:11:48.381Z,977.99
2018-04-13T00:12:48.375Z,978.00
2018-04-13T00:13:48.369Z,977.98
2018-04-13T00:14:48.362Z,977.99
2018-04-13T00:15:48.399Z,977.97
2018-04-13T00:16:48.348Z,977.97
2018-04-13T00:17:48.346Z,977.97
2018-04-13T00:18:48.355Z,977.98
2018-04-13T00:19:48.333Z,977.99
2018-04-13T00:20:48.324Z,977.97
2018-04-13T00:21:48.321Z,977.97
2018-04-13T00:22:48.320Z,978.00
2018-04-13T00:23:48.310Z,977.99
2018-04-13T00:24:48.304Z,977.98
2018-04-13T00:25:48.300Z,977.95
2018-04-13T00:26:48.293Z,977.99
2018-04-13T00:27:48.288Z,977.95
2018-04-13T00:28:48.283Z,977.99
2018-04-13T00:29:48.276Z,977.98
2018-04-13T00:30:48.278Z,977.97
2018-04-13T00:31:48.267Z,977.95
2018-04-13T00:32:48.259Z,977.95
2018-04-13T00:33:48.251Z,977.89
2018-04-13T00:34:48.247Z,977.89
2018-04-13T00:35:48.257Z,977.89
2018-04-13T00:36:48.238Z,977.87
2018-04-13T00:37:48.231Z,977.90
2018-04-13T00:38:48.235Z,977.90
2018-04-13T00:39:48.219Z,977.92
2018-04-13T00:40:48.215Z,977.95
2018-04-13T00:41:48.209Z,977.94
2018-04-13T00:42:48.202Z,977.93
2018-04-13T00:43:48.204Z,977.96
2018-04-13T00:44:48.191Z,977.98
2018-04-13T00:45:48.187Z,977.96
2018-04-13T00:46:48.205Z,977.97
2018-04-13T00:47:48.174Z,977.94
2018-04-13T00:48:48.173Z,977.93
2018-04-13T00:49:48.166Z,977.94
2018-04-13T00:50:48.149Z,977.93
2018-04-13T00:51:48.153Z,977.93
2018-04-13T00:52:48.166Z,977.97
2018-04-13T00:53:48.138Z,977.99
2018-04-13T00:54:48.137Z,977.96
2018-04-13T00:55:48.139Z,977.99
2018-04-13T00:56:48.126Z,977.98
2018-04-13T00:57:48.125Z,978.07
2018-04-13T00:58:48.112Z,978.05
2018-04-13T00:59:48.107Z,977.98
2018-04-13T01:00:48.101Z,978.00
2018-04-13T01:01:48.095Z,978.03
2018-04-13T01:02:48.090Z,978.03
2018-04-13T01:03:48.082Z,977.99
2018-04-13T01:04:48.078Z,978.02
2018-04-13T01:05:48.073Z,978.00
2018-04-13T01:06:48.068Z,977.98
2018-04-13T01:07:48.061Z,978.01
2018-04-13T01:08:48.059Z,978.03
2018-04-13T01:09:48.047Z,978.04
2018-04-13T01:10:48.048Z,978.03
2018-04-13T01:11:48.045Z,978.02
2018-04-13T01:12:48.031Z,978.05
2018-04-13T01:13:48.031Z,978.05
2018-04-13T01:14:48.021Z,978.04
2018-04-13T01:15:48.018Z,978.08
2018-04-13T01:16:48.012Z,978.05
2018-04-13T01:17:48.003Z,978.09
2018-04-13T01:18:47.995Z,978.09
2018-04-13T01:19:47.995Z,978.05
2018-04-13T01:20:47.991Z,978.06
2018-04-13T01:21:47.982Z,978.06
2018-04-13T01:22:47.975Z,978.04
2018-04-13T01:23:47.972Z,978.09
2018-04-13T01:24:47.965Z,978.14
2018-04-13T01:25:47.952Z,978.13
2018-04-13T01:26:47.951Z,978.11
2018-04-13T01:27:47.946Z,978.14
2018-04-13T01:28:47.940Z,978.11
2018-04-13T01:29:47.953Z,978.13
2018-04-13T01:30:47.934Z,978.11
2018-04-13T01:31:47.927Z,978.06
2018-04-13T01:32:47.920Z,978.05
2018-04-13T01:33:47.911Z,978.09
2018-04-13T01:34:47.905Z,978.07
2018-04-13T01:35:47.901Z,978.06
2018-04-13T01:36:47.898Z,978.00
2018-04-13T01:37:47.889Z,978.02
2018-04-13T01:38:47.887Z,978.01
2018-04-13T01:39:47.881Z,978.05
2018-04-13T01:40:47.873Z,978.02
2018-04-13T01:41:47.871Z,978.02
2018-04-13T01:42:47.860Z,978.02
2018-04-13T01:43:47.860Z,978.03
2018-04-13T01:44:47.864Z,978.04
2018-04-13T01:45:47.850Z,978.01
2018-04-13T01:46:47.841Z,978.03
2018-04-13T01:47:47.833Z,978.08
2018-04-13T01:48:47.827Z,978.01
2018-04-13T01:49:47.818Z,978.05
2018-04-13T01:50:47.817Z,978.07
2018-04-13T01:51:47.819Z,978.06
2018-04-13T01:52:47.807Z,978.04
2018-04-13T01:53:47.798Z,978.05
2018-04-13T01:54:47.791Z,978.05
2018-04-13T01:55:47.786Z,978.05
2018-04-13T01:56:47.782Z,978.02
2018-04-13T01:57:47.775Z,978.07
2018-04-13T01:58:47.769Z,977.99
2018-04-13T01:59:47.765Z,978.04
2018-04-13T02:00:47.759Z,978.05
2018-04-13T02:01:47.753Z,978.05
2018-04-13T02:02:47.750Z,978.05
2018-04-13T02:03:47.743Z,978.00
2018-04-13T02:04:47.737Z,978.04
2018-04-13T02:05:47.743Z,978.01
2018-04-13T02:06:47.722Z,978.08
2018-04-13T02:07:47.719Z,978.02
2018-04-13T02:08:47.716Z,978.03
2018-04-13T02:09:47.719Z,978.04
2018-04-13T02:10:47.701Z,978.07
2018-04-13T02:11:47.695Z,978.06
2018-04-13T02:12:47.690Z,978.09
2018-04-13T02:13:47.685Z,978.05
2018-04-13T02:14:47.679Z,978.10
2018-04-13T02:15:47.673Z,978.08
2018-04-13T02:16:47.667Z,978.07
2018-04-13T02:17:47.665Z,978.10
2018-04-13T02:18:47.655Z,978.09
2018-04-13T02:19:47.650Z,978.10
2018-04-13T02:20:47.643Z,978.10
2018-04-13T02:21:47.634Z,978.13
2018-04-13T02:22:47.631Z,978.13
2018-04-13T02:23:47.628Z,978.12
2018-04-13T02:24:47.622Z,978.14
2018-04-13T02:25:47.628Z,978.10
2018-04-13T02:26:47.626Z,978.08
2018-04-13T02:27:47.607Z,978.12
2018-04-13T02:28:47.596Z,978.09
2018-04-13T02:29:47.593Z,978.09
2018-04-13T02:30:47.585Z,978.12
2018-04-13T02:31:47.584Z,978.15
2018-04-13T02:32:47.573Z,978.13
2018-04-13T02:33:47.570Z,978.17
2018-04-13T02:34:47.570Z,978.15
2018-04-13T02:35:47.557Z,978.13
2018-04-13T02:36:47.552Z,978.16
2018-04-13T02:37:47.539Z,978.17
2018-04-13T02:38:47.538Z,978.16
2018-04-13T02:39:47.539Z,978.17
2018-04-13T02:40:47.530Z,978.12
2018-04-13T02:41:47.522Z,978.09
2018-04-13T02:42:47.524Z,978.11
2018-04-13T02:43:47.519Z,978.12
2018-04-13T02:44:47.505Z,978.13
2018-04-13T02:45:47.509Z,978.12
2018-04-13T02:46:47.493Z,978.12
2018-04-13T02:47:47.489Z,978.14
2018-04-13T02:48:47.484Z,978.16
2018-04-13T02:49:47.478Z,978.16
2018-04-13T02:50:47.473Z,978.13
2018-04-13T02:51:47.468Z,978.15
2018-04-13T02:52:47.460Z,978.13
2018-04-13T02:53:47.455Z,978.13
2018-04-13T02:54:47.448Z,978.16
2018-04-13T02:55:47.449Z,978.18
2018-04-13T02:56:47.441Z,978.19
2018-04-13T02:57:47.424Z,978.15
2018-04-13T02:58:47.421Z,978.13
2018-04-13T02:59:47.416Z,978.16
2018-04-13T03:00:47.418Z,978.19
2018-04-13T03:01:47.410Z,978.21
2018-04-13T03:02:47.401Z,978.16
2018-04-13T03:03:47.394Z,978.17
2018-04-13T03:04:47.392Z,978.18
2018-04-13T03:05:47.383Z,978.17
2018-04-13T03:06:47.378Z,978.14
2018-04-13T03:07:47.369Z,978.16
2018-04-13T03:08:47.368Z,978.21
2018-04-13T03:09:47.363Z,978.17
2018-04-13T03:10:47.361Z,978.21
2018-04-13T03:11:47.351Z,978.21
2018-04-13T03:12:47.345Z,978.18
2018-04-13T03:13:47.338Z,978.16
2018-04-13T03:14:47.328Z,978.15
2018-04-13T03:15:47.330Z,978.22
2018-04-13T03:16:47.321Z,978.15
2018-04-13T03:17:47.315Z,978.20
2018-04-13T03:18:47.352Z,978.18
2018-04-13T03:19:47.326Z,978.15
2018-04-13T03:20:47.297Z,978.14
2018-04-13T03:21:47.292Z,978.15
2018-04-13T03:22:47.285Z,978.14
2018-04-13T03:23:47.281Z,978.16
2018-04-13T03:24:47.276Z,978.16
2018-04-13T03:25:47.270Z,978.14
2018-04-13T03:26:47.264Z,978.12
2018-04-13T03:27:47.254Z,978.13
2018-04-13T03:28:47.276Z,978.15
2018-04-13T03:29:47.245Z,978.15
2018-04-13T03:30:47.237Z,978.17
2018-04-13T03:31:47.237Z,978.20
2018-04-13T03:32:47.230Z,978.21
2018-04-13T03:33:47.223Z,978.19
2018-04-13T03:34:47.222Z,978.22
2018-04-13T03:35:47.210Z,978.19
2018-04-13T03:36:47.205Z,978.19
2018-04-13T03:37:47.201Z,978.21
2018-04-13T03:38:47.192Z,978.23
2018-04-13T03:39:47.189Z,978.25
2018-04-13T03:40:47.186Z,978.21
2018-04-13T03:41:47.181Z,978.22
2018-04-13T03:42:47.172Z,978.25
2018-04-13T03:43:47.167Z,978.22
2018-04-13T03:44:47.159Z,978.25
2018-04-13T03:45:47.153Z,978.25
2018-04-13T03:46:47.147Z,978.27
2018-04-13T03:47:47.138Z,978.28
2018-04-13T03:48:47.135Z,978.28
2018-04-13T03:49:47.133Z,978.30
2018-04-13T03:50:47.124Z,978.29
2018-04-13T03:51:47.126Z,978.30
2018-04-13T03:52:47.113Z,978.29
2018-04-13T03:53:47.107Z,978.29
2018-04-13T03:54:47.098Z,978.32
2018-04-13T03:55:47.102Z,978.31
2018-04-13T03:56:47.086Z,978.29
2018-04-13T03:57:47.085Z,978.29
2018-04-13T03:58:47.074Z,978.31
2018-04-13T03:59:47.066Z,978.26
2018-04-13T04:00:47.063Z,978.23
2018-04-13T04:01:47.054Z,978.19
2018-04-13T04:02:47.046Z,978.20
2018-04-13T04:03:47.040Z,978.14
2018-04-13T04:04:47.036Z,978.18
2018-04-13T04:05:47.027Z,978.21
2018-04-13T04:06:47.020Z,978.14
2018-04-13T04:07:47.017Z,978.21
2018-04-13T04:08:47.008Z,978.20
2018-04-13T04:09:47.000Z,978.22
2018-04-13T04:10:46.992Z,978.21
2018-04-13T04:11:46.995Z,978.23
2018-04-13T04:12:46.978Z,978.23
2018-04-13T04:13:46.972Z,978.23
2018-04-13T04:14:46.961Z,978.29
2018-04-13T04:15:46.962Z,978.30
2018-04-13T04:16:46.956Z,978.32
2018-04-13T04:17:46.943Z,978.42
2018-04-13T04:18:46.942Z,978.41
2018-04-13T04:19:46.929Z,978.49
2018-04-13T04:20:46.921Z,978.44
2018-04-13T04:21:46.916Z,978.46
2018-04-13T04:22:46.904Z,978.47
2018-04-13T04:23:46.900Z,978.45
2018-04-13T04:24:46.892Z,978.48
2018-04-13T04:25:46.890Z,978.51
2018-04-13T04:26:46.882Z,978.50
2018-04-13T04:27:46.872Z,978.49
2018-04-13T04:28:46.863Z,978.51
2018-04-13T04:29:46.857Z,978.51
2018-04-13T04:30:46.850Z,978.52
2018-04-13T04:31:46.843Z,978.56
2018-04-13T04:32:46.861Z,978.56
2018-04-13T04:33:46.833Z,978.57
2018-04-13T04:34:46.820Z,978.58
2018-04-13T04:35:46.810Z,978.60
2018-04-13T04:36:46.811Z,978.63
2018-04-13T04:37:46.799Z,978.66
2018-04-13T04:38:46.794Z,978.68
2018-04-13T04:39:46.785Z,978.67
2018-04-13T04:40:46.779Z,978.68
2018-04-13T04:41:46.777Z,978.70
2018-04-13T04:42:46.763Z,978.72
2018-04-13T04:43:46.757Z,978.76
2018-04-13T04:44:46.748Z,978.75
2018-04-13T04:45:46.742Z,978.79
2018-04-13T04:46:46.734Z,978.82
2018-04-13T04:47:46.727Z,978.87
2018-04-13T04:48:46.719Z,978.82
2018-04-13T04:49:46.712Z,978.82
2018-04-13T04:50:46.706Z,978.86
2018-04-13T04:51:46.700Z,978.90
2018-04-13T04:52:46.692Z,978.86
2018-04-13T04:53:46.683Z,978.85
2018-04-13T04:54:46.679Z,978.84
2018-04-13T04:55:46.681Z,978.82
2018-04-13T04:56:46.662Z,978.86
2018-04-13T04:57:46.655Z,978.86
2018-04-13T04:58:46.647Z,978.77
2018-04-13T04:59:46.640Z,978.83
2018-04-13T05:00:46.633Z,978.80
2018-04-13T05:01:46.628Z,978.78
2018-04-13T05:02:46.619Z,978.75
2018-04-13T05:03:46.616Z,978.75
2018-04-13T05:04:46.604Z,978.83
2018-04-13T05:05:46.601Z,978.76
2018-04-13T05:06:46.592Z,978.79
2018-04-13T05:07:46.591Z,978.82
2018-04-13T05:08:46.577Z,978.81
2018-04-13T05:09:46.569Z,978.84
2018-04-13T05:10:46.562Z,978.88
2018-04-13T05:11:46.554Z,978.88
2018-04-13T05:12:46.546Z,978.89
2018-04-13T05:13:46.540Z,978.90
2018-04-13T05:14:46.534Z,978.91
2018-04-13T05:15:46.530Z,978.91
2018-04-13T05:16:46.519Z,978.95
2018-04-13T05:17:46.509Z,978.91
2018-04-13T05:18:46.504Z,978.94
2018-04-13T05:19:46.496Z,978.92
2018-04-13T05:20:46.488Z,978.94
2018-04-13T05:21:46.481Z,978.96
2018-04-13T05:22:46.471Z,978.97
2018-04-13T05:23:46.466Z,978.97
2018-04-13T05:24:46.461Z,979.02
2018-04-13T05:25:46.451Z,979.05
2018-04-13T05:26:46.443Z,979.08
2018-04-13T05:27:46.458Z,979.09
2018-04-13T05:28:46.454Z,979.15
2018-04-13T05:29:46.426Z,979.18
2018-04-13T05:30:46.424Z,979.16
2018-04-13T05:31:46.408Z,979.18
2018-04-13T05:32:46.397Z,979.20
2018-04-13T05:33:46.396Z,979.19
2018-04-13T05:34:46.385Z,979.21
2018-04-13T05:35:46.377Z,979.25
2018-04-13T05:36:46.370Z,979.21
2018-04-13T05:37:46.363Z,979.25
2018-04-13T05:38:46.356Z,979.26
2018-04-13T05:39:46.346Z,979.31
2018-04-13T05:40:46.341Z,979.28
2018-04-13T05:41:46.335Z,979.29
2018-04-13T05:42:46.326Z,979.33
2018-04-13T05:43:46.325Z,979.32
2018-04-13T05:44:46.314Z,979.28
2018-04-13T05:45:46.308Z,979.25
2018-04-13T05:46:46.295Z,979.24
2018-04-13T05:47:46.292Z,979.21
2018-04-13T05:48:46.295Z,979.27
2018-04-13T05:49:46.274Z,979.24
2018-04-13T05:50:46.267Z,979.22
2018-04-13T05:51:46.260Z,979.23
2018-04-13T05:52:46.253Z,979.26
2018-04-13T05:53:46.243Z,979.30
2018-04-13T05:54:46.240Z,979.30
2018-04-13T05:55:46.229Z,979.31
2018-04-13T05:56:46.220Z,979.30
2018-04-13T05:57:46.218Z,979.31
2018-04-13T05:58:46.206Z,979.36
2018-04-13T05:59:46.199Z,979.38
2018-04-13T06:00:46.190Z,979.41
2018-04-13T06:01:46.192Z,979.40
2018-04-13T06:02:46.176Z,979.44
2018-04-13T06:03:46.168Z,979.39
2018-04-13T06:04:46.162Z,979.39
2018-04-13T06:05:46.157Z,979.37
2018-04-13T06:06:46.152Z,979.37
2018-04-13T06:07:46.152Z,979.37
2018-04-13T06:08:46.133Z,979.36
2018-04-13T06:09:46.129Z,979.40
2018-04-13T06:10:46.116Z,979.43
2018-04-13T06:11:46.113Z,979.40
2018-04-13T06:12:46.106Z,979.38
2018-04-13T06:13:46.097Z,979.39
2018-04-13T06:14:46.093Z,979.41
2018-04-13T06:15:46.078Z,979.38
2018-04-13T06:16:46.078Z,979.37
2018-04-13T06:17:46.065Z,979.32
2018-04-13T06:18:46.069Z,979.30
2018-04-13T06:19:46.054Z,979.33
2018-04-13T06:20:46.041Z,979.34
2018-04-13T06:21:46.040Z,979.34
2018-04-13T06:22:46.028Z,979.38
2018-04-13T06:23:46.025Z,979.37
2018-04-13T06:24:46.013Z,979.39
2018-04-13T06:25:46.003Z,979.40
2018-04-13T06:26:45.997Z,979.39
2018-04-13T06:27:45.999Z,979.38
2018-04-13T06:28:45.982Z,979.43
2018-04-13T06:29:45.974Z,979.41
2018-04-13T06:30:45.971Z,979.48
2018-04-13T06:31:45.961Z,979.48
2018-04-13T06:32:45.953Z,979.52
2018-04-13T06:33:45.947Z,979.58
2018-04-13T06:34:45.939Z,979.60
2018-04-13T06:35:45.932Z,979.65
2018-04-13T06:36:45.925Z,979.66
2018-04-13T06:37:45.914Z,979.65
2018-04-13T06:38:45.908Z,979.65
2018-04-13T06:39:45.904Z,979.65
2018-04-13T06:40:45.898Z,979.72
2018-04-13T06:41:45.891Z,979.71
2018-04-13T06:42:45.881Z,979.74
2018-04-13T06:43:45.874Z,979.74
2018-04-13T06:44:45.864Z,979.76
2018-04-13T06:45:45.857Z,979.78
2018-04-13T06:46:45.857Z,979.74
2018-04-13T06:47:45.841Z,979.78
2018-04-13T06:48:45.926Z,979.79
2018-04-13T06:49:45.826Z,979.82
2018-04-13T06:50:45.824Z,979.83
2018-04-13T06:51:45.810Z,979.85
2018-04-13T06:52:45.804Z,979.88
2018-04-13T06:53:45.804Z,979.92
2018-04-13T06:54:45.788Z,979.97
2018-04-13T06:55:45.780Z,980.00
2018-04-13T06:56:45.806Z,980.04
2018-04-13T06:57:45.770Z,980.07
2018-04-13T06:58:45.756Z,980.06
2018-04-13T06:59:45.752Z,980.10
2018-04-13T07:00:45.746Z,980.13
2018-04-13T07:01:45.736Z,980.16
2018-04-13T07:02:45.731Z,980.20
2018-04-13T07:03:45.720Z,980.23
2018-04-13T07:04:45.712Z,980.31
2018-04-13T07:05:45.708Z,980.30
2018-04-13T07:06:45.709Z,980.37
2018-04-13T07:07:45.692Z,980.39
2018-04-13T07:08:45.685Z,980.40
2018-04-13T07:09:45.676Z,980.48
2018-04-13T07:10:45.668Z,980.55
2018-04-13T07:11:45.662Z,980.55
2018-04-13T07:12:45.657Z,980.55
2018-04-13T07:13:45.647Z,980.55
2018-04-13T07:14:45.639Z,980.51
2018-04-13T07:15:45.633Z,980.51
2018-04-13T07:16:45.622Z,980.53
2018-04-13T07:17:45.617Z,980.58
2018-04-13T07:18:45.607Z,980.58
2018-04-13T07:19:45.600Z,980.61
2018-04-13T07:20:45.595Z,980.62
2018-04-13T07:21:45.585Z,980.60
2018-04-13T07:22:45.580Z,980.64
2018-04-13T07:23:45.571Z,980.66
2018-04-13T07:24:45.563Z,980.67
2018-04-13T07:25:45.558Z,980.72
2018-04-13T07:26:45.553Z,980.72
2018-04-13T07:27:45.541Z,980.73
2018-04-13T07:28:45.580Z,980.71
2018-04-13T07:29:45.527Z,980.73
2018-04-13T07:30:45.522Z,980.75
2018-04-13T07:31:45.511Z,980.75
2018-04-13T07:32:45.503Z,980.77
2018-04-13T07:33:45.496Z,980.80
2018-04-13T07:34:45.493Z,980.82
2018-04-13T07:35:45.482Z,980.82
2018-04-13T07:36:45.473Z,980.79
2018-04-13T07:37:45.468Z,980.81
2018-04-13T07:38:45.460Z,980.87
2018-04-13T07:39:45.452Z,980.84
2018-04-13T07:40:45.498Z,980.83
2018-04-13T07:41:45.437Z,980.86
2018-04-13T07:42:45.429Z,980.86
2018-04-13T07:43:45.637Z,980.86
2018-04-13T07:44:45.415Z,980.90
2018-04-13T07:45:45.448Z,980.90
2018-04-13T07:46:45.398Z,980.91
2018-04-13T07:47:45.390Z,980.91
2018-04-13T07:48:45.384Z,980.91
2018-04-13T07:49:45.375Z,981.00
2018-04-13T07:50:45.367Z,981.05
2018-04-13T07:51:45.364Z,981.11
2018-04-13T07:52:45.354Z,981.13
2018-04-13T07:53:45.350Z,981.16
2018-04-13T07:54:45.342Z,981.12
2018-04-13T07:55:45.328Z,981.17
2018-04-13T07:56:45.326Z,981.20
2018-04-13T07:57:45.707Z,981.16
2018-04-13T07:58:45.308Z,981.19
2018-04-13T07:59:45.512Z,981.23
2018-04-13T08:00:45.821Z,981.26
2018-04-13T08:01:45.540Z,981.26
2018-04-13T08:02:45.278Z,981.27
2018-04-13T08:03:45.271Z,981.26
2018-04-13T08:04:45.268Z,981.28
2018-04-13T08:05:45.261Z,981.31
2018-04-13T08:06:45.251Z,981.30
2018-04-13T08:07:45.248Z,981.31
2018-04-13T08:08:45.232Z,981.30
2018-04-13T08:09:45.225Z,981.32
2018-04-13T08:10:45.228Z,981.33
2018-04-13T08:11:45.212Z,981.33
2018-04-13T08:12:45.202Z,981.32
2018-04-13T08:13:45.196Z,981.30
2018-04-13T08:14:45.189Z,981.36
2018-04-13T08:15:45.184Z,981.39
2018-04-13T08:16:45.179Z,981.38
2018-04-13T08:17:45.171Z,981.39
2018-04-13T08:18:45.165Z,981.41
2018-04-13T08:19:45.153Z,981.47
2018-04-13T08:20:45.144Z,981.53
2018-04-13T08:21:45.162Z,981.57
2018-04-13T08:22:45.143Z,981.52
2018-04-13T08:23:45.123Z,981.54
2018-04-13T08:24:45.116Z,981.58
2018-04-13T08:25:45.104Z,981.55
2018-04-13T08:26:45.098Z,981.55
2018-04-13T08:27:45.090Z,981.54
2018-04-13T08:28:45.082Z,981.54
2018-04-13T08:29:45.124Z,981.47
2018-04-13T08:30:45.066Z,981.50
2018-04-13T08:31:45.066Z,981.58
2018-04-13T08:32:45.058Z,981.59
2018-04-13T08:33:45.044Z,981.63
2018-04-13T08:34:45.041Z,981.62
2018-04-13T08:35:45.040Z,981.62
2018-04-13T08:36:45.026Z,981.63
2018-04-13T08:37:45.033Z,981.67
2018-04-13T08:38:45.005Z,981.61
2018-04-13T08:39:45.019Z,981.64
2018-04-13T08:40:44.996Z,981.67
2018-04-13T08:41:44.985Z,981.68
2018-04-13T08:42:44.985Z,981.72
2018-04-13T08:43:44.969Z,981.70
2018-04-13T08:44:44.962Z,981.74
2018-04-13T08:45:44.957Z,981.71
2018-04-13T08:46:44.941Z,981.68
2018-04-13T08:47:44.940Z,981.72
2018-04-13T08:48:45.124Z,981.77
2018-04-13T08:49:44.930Z,981.76
2018-04-13T08:50:44.915Z,981.77
2018-04-13T08:51:44.912Z,981.77
2018-04-13T08:52:44.900Z,981.75
2018-04-13T08:53:44.895Z,981.75
2018-04-13T08:54:44.884Z,981.80
2018-04-13T08:55:44.879Z,981.81
2018-04-13T08:56:44.870Z,981.83
2018-04-13T08:57:44.935Z,981.80
2018-04-13T08:58:44.853Z,981.89
2018-04-13T08:59:44.848Z,981.95
2018-04-13T09:00:44.837Z,981.99
2018-04-13T09:01:44.838Z,982.04
2018-04-13T09:02:44.823Z,982.05
2018-04-13T09:03:44.818Z,982.11
2018-04-13T09:04:44.812Z,982.11
2018-04-13T09:05:44.804Z,982.03
2018-04-13T09:06:44.795Z,982.03
2018-04-13T09:07:44.786Z,982.02
2018-04-13T09:08:44.783Z,982.03
2018-04-13T09:09:44.772Z,982.12
2018-04-13T09:10:44.764Z,982.23
2018-04-13T09:11:44.757Z,982.19
2018-04-13T09:12:44.749Z,982.15
2018-04-13T09:13:44.742Z,982.15
2018-04-13T09:14:44.736Z,982.13
2018-04-13T09:15:44.726Z,982.20
2018-04-13T09:16:44.718Z,982.18
2018-04-13T09:17:44.710Z,982.21
2018-04-13T09:18:44.705Z,982.29
2018-04-13T09:19:44.695Z,982.25
2018-04-13T09:20:44.734Z,982.28
2018-04-13T09:21:44.692Z,982.28
2018-04-13T09:22:44.677Z,982.31
2018-04-13T09:23:44.666Z,982.30
2018-04-13T09:24:44.657Z,982.38
2018-04-13T09:25:44.647Z,982.32
2018-04-13T09:26:44.641Z,982.30
2018-04-13T09:27:44.639Z,982.33
2018-04-13T09:28:44.634Z,982.36
2018-04-13T09:29:44.619Z,982.38
2018-04-13T09:30:44.612Z,982.43
2018-04-13T09:31:44.606Z,982.40
2018-04-13T09:32:44.597Z,982.44
2018-04-13T09:33:44.587Z,982.41
2018-04-13T09:34:44.583Z,982.41
2018-04-13T09:35:44.592Z,982.39
2018-04-13T09:36:44.565Z,982.38
2018-04-13T09:37:44.562Z,982.38
2018-04-13T09:38:44.549Z,982.38
2018-04-13T09:39:44.541Z,982.38
2018-04-13T09:40:44.540Z,982.40
2018-04-13T09:41:44.529Z,982.41
2018-04-13T09:42:44.521Z,982.41
2018-04-13T09:43:44.512Z,982.41
2018-04-13T09:44:44.507Z,982.53
2018-04-13T09:45:44.497Z,982.51
2018-04-13T09:46:44.490Z,982.50
2018-04-13T09:47:44.490Z,982.54
2018-04-13T09:48:44.478Z,982.56
2018-04-13T09:49:44.468Z,982.60
2018-04-13T09:50:44.455Z,982.60
2018-04-13T09:51:44.450Z,982.61
2018-04-13T09:52:44.442Z,982.61
2018-04-13T09:53:44.442Z,982.66
2018-04-13T09:54:44.431Z,982.71
2018-04-13T09:55:44.421Z,982.72
2018-04-13T09:56:44.414Z,982.77
2018-04-13T09:57:44.407Z,982.72
2018-04-13T09:58:44.397Z,982.81
2018-04-13T09:59:44.395Z,982.75
2018-04-13T10:00:44.384Z,982.77
2018-04-13T10:01:44.382Z,982.78
2018-04-13T10:02:44.368Z,982.78
2018-04-13T10:03:44.358Z,982.80
2018-04-13T10:04:44.351Z,982.74
2018-04-13T10:05:44.349Z,982.76
2018-04-13T10:06:44.348Z,982.85
2018-04-13T10:07:44.331Z,982.82
2018-04-13T10:08:44.322Z,982.84
2018-04-13T10:09:44.315Z,982.86
2018-04-13T10:10:44.307Z,982.87
2018-04-13T10:11:44.301Z,982.89
2018-04-13T10:12:44.300Z,982.90
2018-04-13T10:13:44.290Z,982.91
2018-04-13T10:14:44.278Z,982.93
2018-04-13T10:15:44.278Z,982.92
2018-04-13T10:16:44.260Z,982.92
2018-04-13T10:17:44.254Z,982.99
2018-04-13T10:18:44.248Z,982.99
2018-04-13T10:19:44.239Z,983.04
2018-04-13T10:20:44.234Z,983.10
2018-04-13T10:21:44.314Z,983.08
2018-04-13T10:22:44.216Z,983.05
2018-04-13T10:23:44.235Z,983.06
2018-04-13T10:24:44.204Z,983.09
2018-04-13T10:25:44.193Z,983.14
2018-04-13T10:26:44.184Z,983.17
2018-04-13T10:27:44.179Z,983.18
2018-04-13T10:28:44.172Z,983.22
2018-04-13T10:29:44.162Z,983.27
2018-04-13T10:30:44.155Z,983.29
2018-04-13T10:31:44.153Z,983.33
2018-04-13T10:32:44.140Z,983.39
2018-04-13T10:33:44.132Z,983.33
2018-04-13T10:34:44.173Z,983.35
2018-04-13T10:35:44.116Z,983.37
2018-04-13T10:36:44.110Z,983.35
2018-04-13T10:37:44.101Z,983.39
2018-04-13T10:38:44.094Z,983.47
2018-04-13T10:39:44.086Z,983.45
2018-04-13T10:40:44.081Z,983.49
2018-04-13T10:41:44.074Z,983.49
2018-04-13T10:42:44.060Z,983.51
2018-04-13T10:43:44.055Z,983.51
2018-04-13T10:44:44.056Z,983.58
2018-04-13T10:45:44.042Z,983.58
2018-04-13T10:46:44.035Z,983.61
2018-04-13T10:47:44.028Z,983.68
2018-04-13T10:48:44.016Z,983.68
2018-04-13T10:49:44.012Z,983.71
2018-04-13T10:50:44.012Z,983.71
2018-04-13T10:51:43.995Z,983.78
2018-04-13T10:52:43.991Z,983.76
2018-04-13T10:53:43.982Z,983.78
2018-04-13T10:54:43.973Z,983.79
2018-04-13T10:55:43.964Z,983.82
2018-04-13T10:56:43.960Z,983.85
2018-04-13T10:57:43.950Z,983.82
2018-04-13T10:58:43.941Z,983.85
2018-04-13T10:59:43.933Z,983.88
2018-04-13T11:00:43.925Z,983.87
2018-04-13T11:01:43.918Z,983.87
2018-04-13T11:02:43.909Z,983.88
2018-04-13T11:03:43.954Z,983.87
2018-04-13T11:04:43.897Z,983.93
2018-04-13T11:05:43.891Z,983.94
2018-04-13T11:06:43.881Z,983.95
2018-04-13T11:07:43.872Z,983.99
2018-04-13T11:08:43.865Z,984.04
2018-04-13T11:09:43.858Z,984.01
2018-04-13T11:10:43.847Z,984.06
2018-04-13T11:11:43.841Z,984.10
2018-04-13T11:12:43.833Z,984.12
2018-04-13T11:13:43.826Z,984.09
2018-04-13T11:14:43.817Z,984.09
2018-04-13T11:15:43.837Z,984.11
2018-04-13T11:16:43.828Z,984.10
2018-04-13T11:17:43.805Z,984.09
2018-04-13T11:18:43.807Z,984.09
2018-04-13T11:19:43.779Z,984.08
2018-04-13T11:20:43.771Z,984.09
2018-04-13T11:21:43.766Z,984.12
2018-04-13T11:22:43.757Z,984.12
2018-04-13T11:23:43.748Z,984.17
2018-04-13T11:24:43.742Z,984.18
2018-04-13T11:25:43.737Z,984.22
2018-04-13T11:26:43.726Z,984.28
2018-04-13T11:27:43.733Z,984.27
2018-04-13T11:28:43.718Z,984.34
2018-04-13T11:29:43.701Z,984.38
2018-04-13T11:30:43.694Z,984.38
2018-04-13T11:31:43.690Z,984.42
2018-04-13T11:32:43.676Z,984.53
2018-04-13T11:33:43.670Z,984.55
2018-04-13T11:34:43.666Z,984.60
2018-04-13T11:35:43.657Z,984.65
2018-04-13T11:36:43.654Z,984.71
2018-04-13T11:37:43.643Z,984.76
2018-04-13T11:38:43.666Z,984.83
2018-04-13T11:39:43.643Z,984.79
2018-04-13T11:40:43.620Z,984.85
2018-04-13T11:41:43.616Z,984.89
2018-04-13T11:42:43.605Z,984.93
2018-04-13T11:43:43.597Z,984.94
2018-04-13T11:44:43.590Z,985.02
2018-04-13T11:45:43.583Z,984.93
2018-04-13T11:46:43.574Z,984.91
2018-04-13T11:47:43.565Z,984.87
2018-04-13T11:48:43.556Z,984.89
2018-04-13T11:49:43.551Z,984.88
2018-04-13T11:50:43.544Z,984.89
2018-04-13T11:51:43.537Z,984.93
2018-04-13T11:52:43.530Z,984.98
2018-04-13T11:53:43.519Z,984.99
2018-04-13T11:54:43.511Z,985.04
2018-04-13T11:55:43.513Z,985.03
2018-04-13T11:56:43.498Z,985.01
2018-04-13T11:57:43.492Z,985.05
2018-04-13T11:58:43.479Z,985.10
2018-04-13T11:59:43.473Z,985.14
2018-04-13T12:00:43.469Z,985.23
2018-04-13T12:01:43.464Z,985.20
2018-04-13T12:02:43.452Z,985.25
2018-04-13T12:03:43.443Z,985.26
2018-04-13T12:04:43.439Z,985.29
2018-04-13T12:05:43.448Z,985.33
2018-04-13T12:06:43.426Z,985.30
2018-04-13T12:07:43.413Z,985.31
2018-04-13T12:08:43.405Z,985.30
2018-04-13T12:09:43.396Z,985.35
2018-04-13T12:10:43.390Z,985.33
2018-04-13T12:11:43.390Z,985.37
2018-04-13T12:12:43.381Z,985.41
2018-04-13T12:13:43.381Z,985.48
2018-04-13T12:14:43.361Z,985.41
2018-04-13T12:15:43.408Z,985.49
2018-04-13T12:16:43.346Z,985.49
2018-04-13T12:17:43.342Z,985.52
2018-04-13T12:18:43.333Z,985.52
2018-04-13T12:19:43.326Z,985.49
2018-04-13T12:20:43.316Z,985.57
2018-04-13T12:21:43.309Z,985.59
2018-04-13T12:22:43.303Z,985.61
2018-04-13T12:23:43.287Z,985.60
2018-04-13T12:24:43.283Z,985.64
2018-04-13T12:25:43.279Z,985.68
2018-04-13T12:26:43.276Z,985.66
2018-04-13T12:27:43.265Z,985.70
2018-04-13T12:28:43.253Z,985.77